createdAt,value
2022-11-15T00:00:55.323Z,95078.84
2022-11-15T00:03:25.100Z,95075.66
2022-11-15T00:05:53.070Z,95061.81
2022-11-15T00:08:21.241Z,95078.28
2022-11-15T00:10:58.053Z,95054.34
2022-11-15T00:13:25.926Z,95069.66
2022-11-15T00:15:54.297Z,95063.63
2022-11-15T00:18:22.523Z,95071.78
2022-11-15T00:20:50.371Z,95071.19
2022-11-15T00:23:18.317Z,95069.00
2022-11-15T00:25:46.230Z,95056.06
2022-11-15T00:28:15.526Z,95050.13
2022-11-15T00:30:43.403Z,95064.09
2022-11-15T00:33:11.978Z,95037.00
2022-11-15T00:35:39.920Z,95030.72
2022-11-15T00:38:07.900Z,95045.44
2022-11-15T00:40:35.893Z,95051.06
2022-11-15T00:43:03.795Z,95049.06
2022-11-15T00:45:33.075Z,95045.88
2022-11-15T00:48:00.928Z,95050.59
2022-11-15T00:50:28.861Z,95045.22
2022-11-15T00:52:56.842Z,95049.41
2022-11-15T00:55:24.770Z,95025.69
2022-11-15T00:57:52.707Z,95028.38
2022-11-15T01:00:20.804Z,95037.50
2022-11-15T01:02:50.065Z,95032.72
2022-11-15T01:05:18.312Z,95044.97
2022-11-15T01:07:46.344Z,95041.13
2022-11-15T01:10:17.179Z,95034.13
2022-11-15T01:12:45.556Z,95030.47
2022-11-15T01:15:13.835Z,95036.69
2022-11-15T01:17:42.391Z,95025.09
2022-11-15T01:20:12.616Z,95035.94
2022-11-15T01:22:40.440Z,95038.03
2022-11-15T01:25:08.644Z,95035.34
2022-11-15T01:27:36.643Z,95029.03
2022-11-15T01:30:05.721Z,95040.78
2022-11-15T01:32:34.089Z,95033.88
2022-11-15T01:35:02.193Z,95014.53
2022-11-15T01:37:31.464Z,95019.28
2022-11-15T01:39:59.634Z,95041.19
2022-11-15T01:42:27.558Z,95032.06
2022-11-15T01:44:55.923Z,95027.75
2022-11-15T01:47:27.852Z,95032.66
2022-11-15T01:50:02.916Z,95017.72
2022-11-15T01:52:34.992Z,95029.06
2022-11-15T01:55:11.768Z,95024.44
2022-11-15T01:57:40.187Z,95027.47
2022-11-15T02:00:09.548Z,95025.63
2022-11-15T02:02:40.677Z,95034.72
2022-11-15T02:05:09.384Z,95025.41
2022-11-15T02:07:39.164Z,95034.75
2022-11-15T02:10:11.099Z,95028.22
2022-11-15T02:12:39.700Z,95033.13
2022-11-15T02:15:09.625Z,95023.44
2022-11-15T02:17:51.607Z,95023.09
2022-11-15T02:20:53.869Z,95027.97
2022-11-15T02:23:57.760Z,95022.03
2022-11-15T02:26:53.677Z,95020.88
2022-11-15T02:29:38.857Z,95024.47
2022-11-15T02:32:15.944Z,95015.84
2022-11-15T02:34:53.354Z,95023.34
2022-11-15T02:37:29.102Z,95016.78
2022-11-15T02:40:04.710Z,95002.31
2022-11-15T02:42:55.080Z,95007.47
2022-11-15T02:45:27.922Z,95014.19
2022-11-15T02:48:01.542Z,95008.50
2022-11-15T02:50:31.962Z,95013.72
2022-11-15T02:52:59.866Z,95005.81
2022-11-15T02:55:33.245Z,95004.41
2022-11-15T02:58:17.302Z,95016.56
2022-11-15T03:00:55.949Z,95017.94
2022-11-15T03:03:42.616Z,95012.69
2022-11-15T03:06:21.799Z,95016.19
2022-11-15T03:08:56.757Z,95012.47
2022-11-15T03:11:26.106Z,95009.31
2022-11-15T03:14:00.809Z,95004.66
2022-11-15T03:16:34.409Z,95016.19
2022-11-15T03:19:09.023Z,95010.97
2022-11-15T03:21:41.053Z,95005.69
2022-11-15T03:24:10.635Z,95004.84
2022-11-15T03:26:43.187Z,95012.44
2022-11-15T03:29:15.661Z,94989.44
2022-11-15T03:31:51.478Z,95000.44
2022-11-15T03:34:28.556Z,95002.66
2022-11-15T03:36:56.853Z,94986.19
2022-11-15T03:39:26.072Z,95000.31
2022-11-15T03:42:04.312Z,94988.97
2022-11-15T03:44:42.424Z,94993.78
2022-11-15T03:47:14.780Z,94979.16
2022-11-15T03:49:48.579Z,94983.59
2022-11-15T03:52:20.055Z,94981.94
2022-11-15T03:54:52.793Z,94982.84
2022-11-15T03:57:20.878Z,94973.75
2022-11-15T03:59:48.845Z,94973.63
2022-11-15T04:02:16.826Z,94985.56
2022-11-15T04:04:46.116Z,94960.91
2022-11-15T04:07:14.101Z,94969.19
2022-11-15T04:09:56.307Z,94964.44
2022-11-15T04:12:31.847Z,94974.69
2022-11-15T04:15:11.719Z,94975.97
2022-11-15T04:17:41.347Z,94973.06
2022-11-15T04:20:31.887Z,94964.44
2022-11-15T04:23:18.741Z,94975.41
2022-11-15T04:25:47.702Z,94965.47
2022-11-15T04:28:15.601Z,94953.91
2022-11-15T04:30:43.491Z,94968.03
2022-11-15T04:33:11.540Z,94964.03
2022-11-15T04:35:41.075Z,94975.94
2022-11-15T04:38:10.144Z,94976.31
2022-11-15T04:40:39.868Z,94971.97
2022-11-15T04:43:07.751Z,94954.00
2022-11-15T04:45:35.635Z,94980.50
2022-11-15T04:48:03.497Z,94967.66
2022-11-15T04:50:31.410Z,94973.75
2022-11-15T04:53:00.880Z,94973.06
2022-11-15T04:55:28.803Z,94971.81
2022-11-15T04:58:01.248Z,94967.19
2022-11-15T05:00:30.548Z,94973.84
2022-11-15T05:03:16.229Z,94984.47
2022-11-15T05:05:44.574Z,94957.97
2022-11-15T05:08:13.885Z,94977.91
2022-11-15T05:10:41.838Z,94972.56
2022-11-15T05:13:09.791Z,94970.78
2022-11-15T05:15:37.727Z,94984.81
2022-11-15T05:18:05.672Z,94983.75
2022-11-15T05:20:33.642Z,94981.03
2022-11-15T05:23:01.678Z,94982.47
2022-11-15T05:25:31.076Z,94979.78
2022-11-15T05:27:59.106Z,94959.41
2022-11-15T05:30:27.075Z,94970.81
2022-11-15T05:32:55.855Z,94955.38
2022-11-15T05:35:35.135Z,94972.56
2022-11-15T05:38:03.130Z,94973.97
2022-11-15T05:40:33.521Z,94955.66
2022-11-15T05:43:04.058Z,94974.56
2022-11-15T05:45:33.570Z,94972.59
2022-11-15T05:48:06.832Z,94968.84
2022-11-15T05:50:35.716Z,94977.47
2022-11-15T05:53:05.463Z,94972.56
2022-11-15T05:55:34.990Z,94972.28
2022-11-15T05:58:03.548Z,94968.81
2022-11-15T06:00:42.125Z,94974.88
2022-11-15T06:03:10.697Z,94974.19
2022-11-15T06:05:39.435Z,94980.63
2022-11-15T06:08:07.624Z,94985.03
2022-11-15T06:10:37.203Z,94970.22
2022-11-15T06:13:07.185Z,94986.75
2022-11-15T06:15:36.008Z,94978.44
2022-11-15T06:18:04.533Z,94981.56
2022-11-15T06:20:32.650Z,94971.34
2022-11-15T06:23:01.048Z,94973.59
2022-11-15T06:25:29.982Z,94973.50
2022-11-15T06:28:01.992Z,94971.00
2022-11-15T06:30:31.186Z,94979.78
2022-11-15T06:33:04.115Z,94978.81
2022-11-15T06:35:35.274Z,94970.91
2022-11-15T06:38:08.464Z,94972.97
2022-11-15T06:40:37.196Z,94965.13
2022-11-15T06:43:08.301Z,94971.97
2022-11-15T06:45:36.398Z,94966.09
2022-11-15T06:48:04.490Z,94957.69
2022-11-15T06:50:32.624Z,94967.53
2022-11-15T06:53:04.079Z,94971.44
2022-11-15T06:55:32.516Z,94954.16
2022-11-15T06:58:00.519Z,94970.81
2022-11-15T07:00:30.022Z,94980.75
2022-11-15T07:03:02.320Z,94961.72
2022-11-15T07:05:31.627Z,94966.22
2022-11-15T07:08:01.049Z,94963.28
2022-11-15T07:10:29.586Z,94972.06
2022-11-15T07:12:58.438Z,94964.78
2022-11-15T07:15:28.123Z,94961.34
2022-11-15T07:17:58.874Z,94949.47
2022-11-15T07:20:27.242Z,94965.66
2022-11-15T07:23:05.060Z,94961.53
2022-11-15T07:25:33.340Z,94973.50
2022-11-15T07:28:02.385Z,94965.22
2022-11-15T07:30:31.314Z,94971.16
2022-11-15T07:33:02.735Z,94962.91
2022-11-15T07:35:37.148Z,94969.47
2022-11-15T07:40:49.857Z,94959.59
2022-11-15T07:43:24.879Z,94958.13
2022-11-15T07:45:58.611Z,94973.13
2022-11-15T07:48:42.978Z,94962.63
2022-11-15T07:51:14.946Z,94974.34
2022-11-15T07:53:44.449Z,94969.09
2022-11-15T07:56:12.609Z,94963.53
2022-11-15T07:58:40.844Z,94970.59
2022-11-15T08:01:10.617Z,94963.94
2022-11-15T08:03:40.268Z,94958.44
2022-11-15T08:06:08.837Z,94948.25
2022-11-15T08:08:37.393Z,94971.50
2022-11-15T08:11:06.935Z,94965.13
2022-11-15T08:13:35.366Z,94968.53
2022-11-15T08:16:06.623Z,94970.84
2022-11-15T08:18:34.781Z,94951.78
2022-11-15T08:21:04.598Z,94955.16
2022-11-15T08:23:40.064Z,94946.25
2022-11-15T08:26:08.283Z,94945.00
2022-11-15T08:28:36.800Z,94953.72
2022-11-15T08:31:07.749Z,94949.81
2022-11-15T08:33:36.197Z,94948.94
2022-11-15T08:36:07.505Z,94954.38
2022-11-15T08:38:36.151Z,94953.06
2022-11-15T08:41:08.392Z,94935.31
2022-11-15T08:43:39.829Z,94948.75
2022-11-15T08:46:07.961Z,94924.22
2022-11-15T08:48:36.669Z,94941.22
2022-11-15T08:51:08.121Z,94930.91
2022-11-15T08:53:36.695Z,94933.75
2022-11-15T08:56:05.318Z,94945.25
2022-11-15T08:58:34.515Z,94936.81
2022-11-15T09:01:03.252Z,94931.38
2022-11-15T09:03:33.134Z,94923.56
2022-11-15T09:06:04.529Z,94921.94
2022-11-15T09:08:47.605Z,94900.53
2022-11-15T09:11:17.755Z,94920.38
2022-11-15T09:13:45.951Z,94904.50
2022-11-15T09:16:41.431Z,94894.84
2022-11-15T09:19:11.816Z,94906.94
2022-11-15T09:21:40.583Z,94891.31
2022-11-15T09:24:10.302Z,94898.66
2022-11-15T09:26:38.531Z,94905.88
2022-11-15T09:29:10.986Z,94883.84
2022-11-15T09:31:39.082Z,94905.75
2022-11-15T09:34:07.258Z,94899.78
2022-11-15T09:36:35.355Z,94893.78
2022-11-15T09:39:03.959Z,94878.56
2022-11-15T09:42:09.639Z,94878.19
2022-11-15T09:48:14.521Z,94872.47
2022-11-15T09:50:47.916Z,94863.66
2022-11-15T09:53:50.746Z,94865.28
2022-11-15T09:56:20.702Z,94857.63
2022-11-15T09:58:59.168Z,94870.25
2022-11-15T10:01:39.080Z,94840.34
2022-11-15T10:04:11.814Z,94862.47
2022-11-15T10:06:49.306Z,94853.53
2022-11-15T10:09:30.287Z,94859.78
2022-11-15T10:12:03.514Z,94856.03
2022-11-15T10:14:33.821Z,94845.94
2022-11-15T10:17:20.698Z,94851.06
2022-11-15T10:20:05.019Z,94858.41
2022-11-15T10:22:40.825Z,94860.41
2022-11-15T10:25:24.877Z,94862.38
2022-11-15T10:27:57.278Z,94868.84
2022-11-15T10:30:33.627Z,94851.34
2022-11-15T10:33:13.790Z,94851.50
2022-11-15T10:35:45.096Z,94845.81
2022-11-15T10:38:14.892Z,94844.50
2022-11-15T10:40:44.991Z,94828.75
2022-11-15T10:43:19.016Z,94839.06
2022-11-15T10:45:49.895Z,94830.81
2022-11-15T10:48:27.506Z,94835.06
2022-11-15T10:50:58.321Z,94815.22
2022-11-15T10:53:33.175Z,94828.88
2022-11-15T10:56:05.921Z,94824.31
2022-11-15T10:58:41.778Z,94825.91
2022-11-15T11:01:16.252Z,94819.72
2022-11-15T11:03:46.574Z,94803.09
2022-11-15T11:06:19.284Z,94808.09
2022-11-15T11:09:01.755Z,94785.69
2022-11-15T11:11:47.479Z,94803.25
2022-11-15T11:14:29.872Z,94779.66
2022-11-15T11:17:05.555Z,94784.53
2022-11-15T11:19:56.031Z,94797.41
2022-11-15T11:22:34.679Z,94787.69
2022-11-15T11:25:19.821Z,94777.16
2022-11-15T11:28:00.801Z,94767.81
2022-11-15T11:30:42.483Z,94753.31
2022-11-15T11:33:19.081Z,94758.00
2022-11-15T11:35:58.379Z,94745.56
2022-11-15T11:38:41.029Z,94747.25
2022-11-15T11:41:22.593Z,94743.81
2022-11-15T11:43:58.783Z,94744.66
2022-11-15T11:46:50.371Z,94722.28
2022-11-15T11:49:24.371Z,94737.09
2022-11-15T11:51:58.122Z,94729.94
2022-11-15T11:54:37.087Z,94727.78
2022-11-15T11:57:12.242Z,94718.69
2022-11-15T11:59:48.032Z,94717.59
2022-11-15T12:02:27.449Z,94718.84
2022-11-15T12:05:00.304Z,94712.78
2022-11-15T12:07:33.423Z,94689.13
2022-11-15T12:10:07.626Z,94700.44
2022-11-15T12:12:42.888Z,94680.59
2022-11-15T12:15:19.873Z,94695.19
2022-11-15T12:17:49.363Z,94683.78
2022-11-15T12:20:21.667Z,94697.56
2022-11-15T12:22:59.108Z,94686.16
2022-11-15T12:25:34.921Z,94680.97
2022-11-15T12:28:14.203Z,94683.13
2022-11-15T12:33:57.441Z,94660.28
2022-11-15T12:36:41.322Z,94658.66
2022-11-15T12:39:10.881Z,94654.47
2022-11-15T12:41:41.532Z,94669.38
2022-11-15T12:44:16.837Z,94646.28
2022-11-15T12:47:25.591Z,94637.91
2022-11-15T12:50:02.763Z,94661.41
2022-11-15T12:52:31.561Z,94648.53
2022-11-15T12:55:06.283Z,94645.53
2022-11-15T12:57:41.152Z,94649.56
2022-11-15T13:00:48.119Z,94646.34
2022-11-15T13:03:26.760Z,94641.13
2022-11-15T13:06:11.728Z,94634.13
2022-11-15T13:08:48.422Z,94628.09
2022-11-15T13:11:53.350Z,94641.13
2022-11-15T13:14:58.230Z,94632.66
2022-11-15T13:17:38.964Z,94616.19
2022-11-15T13:20:32.804Z,94623.47
2022-11-15T13:23:12.739Z,94610.88
2022-11-15T13:26:13.925Z,94619.59
2022-11-15T13:28:46.816Z,94623.41
2022-11-15T13:31:38.287Z,94614.78
2022-11-15T13:34:53.582Z,94591.44
2022-11-15T13:37:30.925Z,94608.19
2022-11-15T13:40:20.450Z,94588.94
2022-11-15T13:42:49.090Z,94594.53
2022-11-15T13:45:19.947Z,94612.22
2022-11-15T13:47:54.132Z,94613.13
2022-11-15T13:50:27.044Z,94603.88
2022-11-15T13:52:57.687Z,94599.34
2022-11-15T13:55:29.560Z,94608.38
2022-11-15T13:58:00.864Z,94590.84
2022-11-15T14:00:37.714Z,94600.47
2022-11-15T14:03:17.657Z,94604.34
2022-11-15T14:05:46.027Z,94598.16
2022-11-15T14:08:25.550Z,94586.88
2022-11-15T14:11:14.897Z,94584.50
2022-11-15T14:13:44.394Z,94594.91
2022-11-15T14:16:18.592Z,94594.13
2022-11-15T14:18:49.009Z,94584.78
2022-11-15T14:21:18.342Z,94587.19
2022-11-15T14:23:47.136Z,94590.09
2022-11-15T14:26:33.420Z,94588.81
2022-11-15T14:29:27.080Z,94591.50
2022-11-15T14:31:55.595Z,94586.91
2022-11-15T14:34:23.711Z,94580.81
2022-11-15T14:36:52.879Z,94594.50
2022-11-15T14:39:22.536Z,94593.03
2022-11-15T14:41:52.565Z,94579.63
2022-11-15T14:44:21.831Z,94578.25
2022-11-15T14:46:50.012Z,94593.53
2022-11-15T14:49:18.312Z,94590.41
2022-11-15T14:51:46.467Z,94586.59
2022-11-15T14:54:20.587Z,94582.59
2022-11-15T14:56:48.780Z,94585.00
2022-11-15T14:59:18.748Z,94584.22
2022-11-15T15:01:47.519Z,94585.03
2022-11-15T15:04:15.630Z,94571.94
2022-11-15T15:06:44.741Z,94591.72
2022-11-15T15:09:14.705Z,94581.84
2022-11-15T15:11:47.881Z,94573.59
2022-11-15T15:14:19.869Z,94573.91
2022-11-15T15:16:57.727Z,94559.66
2022-11-15T15:19:30.453Z,94541.31
2022-11-15T15:24:55.877Z,94548.75
2022-11-15T15:27:37.912Z,94553.28
2022-11-15T15:30:09.985Z,94548.41
2022-11-15T15:32:39.338Z,94553.13
2022-11-15T15:35:12.076Z,94554.41
2022-11-15T15:37:40.449Z,94560.25
2022-11-15T15:40:17.042Z,94545.16
2022-11-15T15:42:46.145Z,94551.66
2022-11-15T15:45:21.975Z,94545.66
2022-11-15T15:47:53.462Z,94543.38
2022-11-15T15:50:27.581Z,94543.06
2022-11-15T15:53:12.187Z,94550.19
2022-11-15T15:55:44.555Z,94530.28
2022-11-15T15:58:12.768Z,94541.31
2022-11-15T16:00:42.894Z,94524.75
2022-11-15T16:03:25.446Z,94533.81
2022-11-15T16:09:14.264Z,94530.19
2022-11-15T16:12:08.666Z,94517.06
2022-11-15T16:17:40.275Z,94540.66
2022-11-15T16:23:13.316Z,94537.19
2022-11-15T16:25:44.788Z,94546.19
2022-11-15T16:28:20.261Z,94529.22
2022-11-15T16:30:52.432Z,94530.00
2022-11-15T16:33:30.390Z,94537.41
2022-11-15T16:35:58.890Z,94539.44
2022-11-15T16:38:29.040Z,94546.84
2022-11-15T16:40:57.607Z,94548.75
2022-11-15T16:43:26.476Z,94526.16
2022-11-15T16:45:55.184Z,94526.16
2022-11-15T16:48:26.655Z,94528.25
2022-11-15T16:50:58.577Z,94499.72
2022-11-15T16:53:29.239Z,94509.53
2022-11-15T16:55:57.989Z,94511.19
2022-11-15T16:58:28.055Z,94508.94
2022-11-15T17:00:59.672Z,94513.34
2022-11-15T17:03:27.809Z,94501.38
2022-11-15T17:05:59.717Z,94494.66
2022-11-15T17:08:29.477Z,94492.09
2022-11-15T17:11:01.987Z,94493.09
2022-11-15T17:13:32.312Z,94497.59
2022-11-15T17:18:53.980Z,94492.84
2022-11-15T17:21:24.116Z,94479.03
2022-11-15T17:23:53.592Z,94498.06
2022-11-15T17:26:30.174Z,94485.16
2022-11-15T17:29:01.030Z,94475.44
2022-11-15T17:31:30.785Z,94487.81
2022-11-15T17:33:58.984Z,94493.84
2022-11-15T17:36:27.016Z,94474.56
2022-11-15T17:38:59.786Z,94477.16
2022-11-15T17:41:28.756Z,94493.53
2022-11-15T17:43:58.485Z,94479.03
2022-11-15T17:46:28.652Z,94480.31
2022-11-15T17:48:57.542Z,94494.78
2022-11-15T17:51:25.910Z,94488.25
2022-11-15T17:53:53.996Z,94490.66
2022-11-15T17:56:31.620Z,94486.88
2022-11-15T17:59:02.146Z,94472.66
2022-11-15T18:01:31.660Z,94478.91
2022-11-15T18:04:02.105Z,94486.13
2022-11-15T18:06:32.138Z,94483.41
2022-11-15T18:09:08.188Z,94482.84
2022-11-15T18:11:39.673Z,94466.75
2022-11-15T18:14:11.284Z,94455.84
2022-11-15T18:16:40.360Z,94465.41
2022-11-15T18:19:13.358Z,94467.47
2022-11-15T18:21:59.030Z,94448.03
2022-11-15T18:24:31.270Z,94453.22
2022-11-15T18:27:03.173Z,94449.22
2022-11-15T18:29:32.563Z,94433.47
2022-11-15T18:32:00.688Z,94449.38
2022-11-15T18:34:39.711Z,94431.41
2022-11-15T18:37:08.486Z,94450.50
2022-11-15T18:39:36.722Z,94442.88
2022-11-15T18:42:06.683Z,94445.25
2022-11-15T18:44:34.854Z,94443.63
2022-11-15T18:47:04.664Z,94454.75
2022-11-15T18:49:32.835Z,94449.63
2022-11-15T18:52:00.842Z,94453.72
2022-11-15T18:54:31.350Z,94438.56
2022-11-15T18:56:59.982Z,94439.88
2022-11-15T18:59:30.769Z,94447.25
2022-11-15T19:01:59.704Z,94435.53
2022-11-15T19:04:27.980Z,94448.06
2022-11-15T19:06:56.233Z,94437.34
2022-11-15T19:09:27.426Z,94430.50
2022-11-15T19:11:55.702Z,94438.59
2022-11-15T19:14:26.431Z,94436.81
2022-11-15T19:16:56.144Z,94432.94
2022-11-15T19:19:26.476Z,94439.69
2022-11-15T19:21:57.968Z,94435.72
2022-11-15T19:24:45.004Z,94425.78
2022-11-15T19:27:13.253Z,94432.31
2022-11-15T19:29:42.085Z,94426.84
2022-11-15T19:32:11.733Z,94421.66
2022-11-15T19:34:41.741Z,94426.97
2022-11-15T19:37:10.604Z,94424.59
2022-11-15T19:39:41.169Z,94424.59
2022-11-15T19:42:09.556Z,94424.44
2022-11-15T19:44:38.200Z,94408.44
2022-11-15T19:47:09.379Z,94412.91
2022-11-15T19:49:39.524Z,94398.41
2022-11-15T19:52:10.272Z,94401.38
2022-11-15T19:54:38.471Z,94412.16
2022-11-15T19:57:08.110Z,94425.34
2022-11-15T19:59:36.209Z,94424.44
2022-11-15T20:02:04.343Z,94436.53
2022-11-15T20:04:32.517Z,94425.88
2022-11-15T20:07:02.173Z,94435.41
2022-11-15T20:09:30.959Z,94428.72
2022-11-15T20:11:59.221Z,94420.25
2022-11-15T20:14:29.431Z,94442.19
2022-11-15T20:16:58.293Z,94434.19
2022-11-15T20:19:26.348Z,94418.72
2022-11-15T20:21:57.566Z,94440.09
2022-11-15T20:24:29.381Z,94426.44
2022-11-15T20:26:58.564Z,94434.41
2022-11-15T20:29:26.607Z,94425.63
2022-11-15T20:31:55.731Z,94436.78
2022-11-15T20:34:23.899Z,94436.81
2022-11-15T20:36:51.835Z,94422.25
2022-11-15T20:39:20.969Z,94412.19
2022-11-15T20:41:50.449Z,94418.09
2022-11-15T20:44:18.414Z,94410.56
2022-11-15T20:46:47.567Z,94418.03
2022-11-15T20:49:15.615Z,94405.66
2022-11-15T20:51:45.109Z,94397.09
2022-11-15T20:54:13.367Z,94395.13
2022-11-15T20:56:41.455Z,94388.03
2022-11-15T20:59:11.428Z,94389.97
2022-11-15T21:01:39.890Z,94388.56
2022-11-15T21:04:08.048Z,94393.50
2022-11-15T21:06:36.405Z,94397.50
2022-11-15T21:09:22.192Z,94396.88
2022-11-15T21:12:08.128Z,94386.56
2022-11-15T21:14:38.536Z,94375.41
2022-11-15T21:17:06.785Z,94369.25
2022-11-15T21:19:37.102Z,94371.03
2022-11-15T21:22:08.684Z,94375.53
2022-11-15T21:24:36.817Z,94379.66
2022-11-15T21:27:05.141Z,94371.25
2022-11-15T21:29:39.127Z,94367.03
2022-11-15T21:32:10.028Z,94358.66
2022-11-15T21:34:38.246Z,94341.06
2022-11-15T21:37:06.440Z,94357.09
2022-11-15T21:39:37.089Z,94350.25
2022-11-15T21:42:05.659Z,94355.78
2022-11-15T21:44:33.704Z,94349.38
2022-11-15T21:47:02.418Z,94333.91
2022-11-15T21:49:32.764Z,94324.19
2022-11-15T21:52:00.906Z,94345.84
2022-11-15T21:54:29.057Z,94352.31
2022-11-15T21:56:57.081Z,94345.31
2022-11-15T21:59:25.239Z,94342.59
2022-11-15T22:02:10.721Z,94317.19
2022-11-15T22:04:40.128Z,94326.41
2022-11-15T22:10:03.918Z,94313.66
2022-11-15T22:12:32.125Z,94325.28
2022-11-15T22:15:00.176Z,94321.75
2022-11-15T22:17:48.379Z,94313.88
2022-11-15T22:23:08.061Z,94317.88
2022-11-15T22:25:36.119Z,94318.81
2022-11-15T22:28:04.439Z,94314.91
2022-11-15T22:30:32.605Z,94313.06
2022-11-15T22:33:00.752Z,94311.66
2022-11-15T22:35:30.307Z,94301.13
2022-11-15T22:37:58.767Z,94298.63
2022-11-15T22:40:26.977Z,94292.44
2022-11-15T22:42:55.006Z,94289.47
2022-11-15T22:45:23.314Z,94286.25
2022-11-15T22:47:51.528Z,94279.28
2022-11-15T22:50:20.213Z,94287.22
2022-11-15T22:52:49.816Z,94271.38
2022-11-15T22:55:20.096Z,94265.34
2022-11-15T22:57:48.153Z,94269.56
2022-11-15T23:00:19.145Z,94266.97
2022-11-15T23:02:51.777Z,94291.63
2022-11-15T23:05:21.512Z,94269.19
2022-11-15T23:07:51.407Z,94279.13
2022-11-15T23:10:37.195Z,94273.91
2022-11-15T23:13:18.469Z,94275.66
2022-11-15T23:16:06.106Z,94274.19
2022-11-15T23:18:37.839Z,94269.03
2022-11-15T23:21:12.874Z,94278.44
2022-11-15T23:23:41.386Z,94270.88
2022-11-15T23:26:09.824Z,94268.06
2022-11-15T23:28:37.826Z,94248.00
2022-11-15T23:31:24.477Z,94253.72
2022-11-15T23:34:01.360Z,94256.34
2022-11-15T23:36:30.079Z,94238.13
2022-11-15T23:38:59.498Z,94237.31
2022-11-15T23:41:27.527Z,94243.78
2022-11-15T23:43:55.998Z,94257.94
2022-11-15T23:46:23.963Z,94252.78
2022-11-15T23:48:51.942Z,94247.47
2022-11-15T23:51:20.098Z,94245.69
2022-11-15T23:53:48.193Z,94237.31
2022-11-15T23:56:19.634Z,94226.34
2022-11-15T23:58:48.198Z,94238.44
